Time;durP1;ratioP1;P1;durP2;ratioP2;P2;SDS_P1;SDS_P2;PMS_P1;PMS_P2;Temp;Humidity;BMP_temperature;BMP_pressure;BME280_temperature;BME280_humidity;BME280_pressure;Samples;Min_cycle;Max_cycle;Signal;HPM_P1;HPM_P2
2022/05/17 00:02:06;;;;;;;4.43;3.90;;;;;;;;;;5009287;28;20741;-66
2022/05/17 00:04:37;;;;;;;3.80;3.50;;;;;;;;;;5015736;28;20733;-66
2022/05/17 00:07:05;;;;;;;4.20;3.30;;;;;;;;;;5019648;28;20323;-66
2022/05/17 00:09:33;;;;;;;5.37;3.43;;;;;;;;;;5013890;28;20214;-65
2022/05/17 00:12:01;;;;;;;5.50;3.00;;;;;;;;;;5017022;28;20214;-66
2022/05/17 00:14:28;;;;;;;6.90;3.60;;;;;;;;;;5014793;28;20606;-66
2022/05/17 00:16:56;;;;;;;4.00;2.87;;;;;;;;;;5020546;28;20495;-65
2022/05/17 00:19:24;;;;;;;3.07;2.80;;;;;;;;;;5013803;28;20230;-65
2022/05/17 00:21:52;;;;;;;5.30;3.00;;;;;;;;;;5017114;28;20225;-66
2022/05/17 00:24:20;;;;;;;5.33;3.07;;;;;;;;;;5013148;28;20206;-65
2022/05/17 00:26:48;;;;;;;3.77;2.83;;;;;;;;;;5014284;28;22015;-66
2022/05/17 00:29:16;;;;;;;5.50;2.83;;;;;;;;;;5014329;28;20799;-64
2022/05/17 00:31:43;;;;;;;7.90;4.50;;;;;;;;;;5016124;28;20211;-65
2022/05/17 00:34:11;;;;;;;7.93;3.77;;;;;;;;;;5014184;28;20218;-66
2022/05/17 00:36:39;;;;;;;8.03;4.10;;;;;;;;;;5018408;28;20293;-66
2022/05/17 00:39:06;;;;;;;6.30;4.63;;;;;;;;;;5016230;28;20222;-65
2022/05/17 00:41:34;;;;;;;7.63;3.70;;;;;;;;;;5015095;28;20218;-65
2022/05/17 00:47:13;;;;;;;3.87;3.27;;;;;;;;;;5031798;28;20268;-65
2022/05/17 00:49:43;;;;;;;4.23;3.07;;;;;;;;;;4988808;28;20721;-65
2022/05/17 00:52:12;;;;;;;6.10;2.97;;;;;;;;;;5019555;28;20210;-66
2022/05/17 00:54:41;;;;;;;5.20;3.23;;;;;;;;;;5016947;28;20275;-66
2022/05/17 00:57:16;;;;;;;3.97;3.07;;;;;;;;;;5008988;28;20334;-65
2022/05/17 00:59:45;;;;;;;3.37;3.07;;;;;;;;;;5017658;28;20682;-65
2022/05/17 01:02:13;;;;;;;4.90;3.30;;;;;;;;;;5010485;28;20893;-66
2022/05/17 01:04:40;;;;;;;4.60;3.23;;;;;;;;;;5015576;28;21901;-64
2022/05/17 01:07:09;;;;;;;5.60;3.17;;;;;;;;;;5017616;28;20211;-66
2022/05/17 01:09:37;;;;;;;4.80;3.10;;;;;;;;;;5016072;28;20240;-66
2022/05/17 01:12:05;;;;;;;5.20;3.30;;;;;;;;;;5014467;28;20271;-65
2022/05/17 01:17:18;;;;;;;3.93;3.00;;;;;;;;;;5035241;28;20747;-65
2022/05/17 01:19:46;;;;;;;4.23;3.20;;;;;;;;;;5012469;28;20226;-67
2022/05/17 01:22:13;;;;;;;9.37;3.47;;;;;;;;;;5013179;28;20234;-65
2022/05/17 01:24:41;;;;;;;6.80;3.30;;;;;;;;;;5011638;28;20694;-67
2022/05/17 01:27:09;;;;;;;4.67;3.33;;;;;;;;;;5012957;28;20218;-65
2022/05/17 01:29:40;;;;;;;4.40;3.37;;;;;;;;;;5014156;28;20222;-67
2022/05/17 01:32:09;;;;;;;4.27;3.07;;;;;;;;;;5014051;28;20219;-64
2022/05/17 01:34:37;;;;;;;5.97;3.33;;;;;;;;;;5023154;28;20242;-65
2022/05/17 01:37:05;;;;;;;5.70;2.97;;;;;;;;;;5019000;28;20213;-64
2022/05/17 01:39:34;;;;;;;4.83;3.73;;;;;;;;;;5013848;28;20777;-66
2022/05/17 01:42:01;;;;;;;4.10;3.30;;;;;;;;;;5012893;28;20230;-66
2022/05/17 01:44:29;;;;;;;3.40;3.10;;;;;;;;;;5014858;28;20206;-66
2022/05/17 01:46:56;;;;;;;4.30;3.20;;;;;;;;;;5009200;28;20646;-65
2022/05/17 01:49:24;;;;;;;7.40;4.10;;;;;;;;;;5008363;28;20227;-66
2022/05/17 01:51:51;;;;;;;3.77;3.17;;;;;;;;;;5017271;28;20218;-64
2022/05/17 01:54:18;;;;;;;4.43;3.50;;;;;;;;;;5010252;28;20218;-65
2022/05/17 01:56:46;;;;;;;5.60;3.53;;;;;;;;;;5009372;28;20206;-66
2022/05/17 01:59:14;;;;;;;5.33;3.53;;;;;;;;;;5013192;28;20261;-65
2022/05/17 02:01:41;;;;;;;4.67;3.20;;;;;;;;;;5008936;28;20210;-65
2022/05/17 02:04:09;;;;;;;8.27;3.87;;;;;;;;;;5006841;28;20207;-66
2022/05/17 02:06:36;;;;;;;4.60;3.30;;;;;;;;;;5014907;28;20568;-66
2022/05/17 02:09:04;;;;;;;5.70;3.37;;;;;;;;;;5022007;28;20223;-66
2022/05/17 02:11:31;;;;;;;3.93;3.53;;;;;;;;;;5022934;28;20198;-65
2022/05/17 02:13:59;;;;;;;4.57;3.43;;;;;;;;;;5017655;28;21100;-66
2022/05/17 02:16:26;;;;;;;5.87;3.40;;;;;;;;;;5011094;28;20255;-65
2022/05/17 02:18:53;;;;;;;4.97;3.23;;;;;;;;;;5013975;28;20230;-65
2022/05/17 02:21:21;;;;;;;4.50;3.33;;;;;;;;;;5014907;28;20337;-64
2022/05/17 02:23:48;;;;;;;5.53;3.47;;;;;;;;;;5013731;28;20226;-66
2022/05/17 02:26:16;;;;;;;7.00;3.70;;;;;;;;;;5019749;28;20201;-65
2022/05/17 02:28:43;;;;;;;4.13;3.60;;;;;;;;;;5017159;28;20237;-65
2022/05/17 02:31:16;;;;;;;5.30;3.80;;;;;;;;;;5013615;28;20212;-64
2022/05/17 02:33:43;;;;;;;6.50;3.43;;;;;;;;;;5020700;28;20218;-65
2022/05/17 02:36:11;;;;;;;7.70;4.10;;;;;;;;;;5022306;28;20207;-65
2022/05/17 02:38:38;;;;;;;4.07;3.67;;;;;;;;;;5023118;28;20281;-65
2022/05/17 02:41:06;;;;;;;6.30;4.13;;;;;;;;;;5019984;28;20214;-66
2022/05/17 02:43:34;;;;;;;5.20;4.00;;;;;;;;;;5024241;28;20225;-66
2022/05/17 02:46:05;;;;;;;4.33;3.90;;;;;;;;;;5025670;28;20203;-66
2022/05/17 02:48:33;;;;;;;6.67;4.00;;;;;;;;;;5019321;28;20360;-66
2022/05/17 02:51:16;;;;;;;6.93;3.80;;;;;;;;;;5016402;28;20210;-66
2022/05/17 02:53:44;;;;;;;7.30;4.23;;;;;;;;;;5020108;28;20704;-66
2022/05/17 02:56:12;;;;;;;9.57;4.27;;;;;;;;;;5020367;28;20288;-66
2022/05/17 02:58:40;;;;;;;5.90;4.10;;;;;;;;;;5019213;28;20234;-66
2022/05/17 03:01:08;;;;;;;4.77;3.73;;;;;;;;;;5017828;28;20659;-66
2022/05/17 03:03:40;;;;;;;6.80;3.90;;;;;;;;;;5018457;28;20704;-65
2022/05/17 03:06:08;;;;;;;5.03;3.93;;;;;;;;;;5016788;28;20199;-65
2022/05/17 03:08:36;;;;;;;8.67;4.07;;;;;;;;;;5035760;28;20218;-65
2022/05/17 03:11:05;;;;;;;6.00;3.63;;;;;;;;;;5022480;28;20210;-65
2022/05/17 03:13:33;;;;;;;4.90;3.90;;;;;;;;;;5032739;28;20210;-65
2022/05/17 03:16:00;;;;;;;4.97;3.20;;;;;;;;;;5015812;28;20222;-66
2022/05/17 03:18:27;;;;;;;3.93;3.57;;;;;;;;;;5014178;28;20230;-65
2022/05/17 03:20:55;;;;;;;4.90;3.90;;;;;;;;;;5018328;28;20214;-65
2022/05/17 03:23:22;;;;;;;4.97;4.20;;;;;;;;;;5015914;28;20882;-65
2022/05/17 03:25:50;;;;;;;6.27;4.20;;;;;;;;;;5018243;28;20217;-66
2022/05/17 03:28:17;;;;;;;6.33;4.27;;;;;;;;;;5017995;28;20817;-65
2022/05/17 03:30:45;;;;;;;7.10;3.73;;;;;;;;;;5020079;28;20201;-66
2022/05/17 03:33:12;;;;;;;5.10;3.23;;;;;;;;;;5013156;28;20202;-65
2022/05/17 03:35:39;;;;;;;4.00;3.30;;;;;;;;;;5013429;28;20241;-66
2022/05/17 03:38:07;;;;;;;5.60;3.33;;;;;;;;;;5014160;28;20202;-65
2022/05/17 03:40:34;;;;;;;4.50;4.00;;;;;;;;;;5016473;28;20228;-65
2022/05/17 03:43:03;;;;;;;4.67;4.10;;;;;;;;;;5025225;28;20241;-66
2022/05/17 03:45:30;;;;;;;6.23;4.30;;;;;;;;;;5017274;28;20206;-65
2022/05/17 03:47:58;;;;;;;5.33;4.00;;;;;;;;;;5017592;28;20780;-66
2022/05/17 03:50:25;;;;;;;5.67;4.00;;;;;;;;;;5020185;28;20567;-66
2022/05/17 03:52:53;;;;;;;6.47;4.73;;;;;;;;;;5016539;28;20302;-65
2022/05/17 03:55:20;;;;;;;8.17;5.57;;;;;;;;;;5010266;28;20214;-66
2022/05/17 03:57:49;;;;;;;5.30;4.63;;;;;;;;;;5002565;28;20264;-66
2022/05/17 04:00:16;;;;;;;9.27;5.50;;;;;;;;;;5013619;28;21904;-65
2022/05/17 04:02:44;;;;;;;7.93;5.00;;;;;;;;;;5028575;28;20237;-65
2022/05/17 04:05:11;;;;;;;8.13;5.50;;;;;;;;;;5009316;28;20214;-66
2022/05/17 04:07:39;;;;;;;6.90;5.23;;;;;;;;;;5013358;28;20206;-66
2022/05/17 04:10:07;;;;;;;6.03;5.10;;;;;;;;;;5030177;28;20762;-66
2022/05/17 04:12:35;;;;;;;6.40;5.50;;;;;;;;;;5014413;28;20234;-64
2022/05/17 04:15:03;;;;;;;7.53;5.97;;;;;;;;;;5024539;28;20284;-66
2022/05/17 04:17:31;;;;;;;6.27;5.13;;;;;;;;;;5027455;28;20259;-64
2022/05/17 04:20:00;;;;;;;10.20;4.80;;;;;;;;;;5025838;28;20309;-66
2022/05/17 04:22:27;;;;;;;8.27;4.50;;;;;;;;;;5023363;28;20615;-65
2022/05/17 04:24:55;;;;;;;4.37;3.87;;;;;;;;;;5027613;28;20210;-65
2022/05/17 04:27:22;;;;;;;6.70;4.10;;;;;;;;;;5024936;28;20805;-65
2022/05/17 04:29:51;;;;;;;5.33;4.27;;;;;;;;;;5024695;28;20741;-67
2022/05/17 04:32:18;;;;;;;4.63;4.23;;;;;;;;;;5027800;28;20256;-65
2022/05/17 04:34:46;;;;;;;6.00;4.20;;;;;;;;;;5029378;28;20228;-65
2022/05/17 04:37:13;;;;;;;6.37;4.50;;;;;;;;;;5026681;28;20199;-65
2022/05/17 04:39:41;;;;;;;7.10;4.90;;;;;;;;;;5048434;28;20233;-66
2022/05/17 04:42:08;;;;;;;6.10;4.57;;;;;;;;;;5031509;28;20206;-66
2022/05/17 04:44:36;;;;;;;7.27;4.70;;;;;;;;;;5028535;28;20210;-66
2022/05/17 04:47:04;;;;;;;6.10;4.30;;;;;;;;;;5038175;28;20212;-66
2022/05/17 04:49:31;;;;;;;9.23;5.40;;;;;;;;;;5035503;28;20722;-64
2022/05/17 04:51:59;;;;;;;10.20;5.53;;;;;;;;;;5028763;28;20215;-65
2022/05/17 04:54:26;;;;;;;9.17;5.70;;;;;;;;;;5028684;28;20277;-65
2022/05/17 04:56:54;;;;;;;5.83;4.70;;;;;;;;;;5028508;28;20260;-63
2022/05/17 04:59:23;;;;;;;9.30;6.33;;;;;;;;;;5023258;28;20235;-65
2022/05/17 05:01:50;;;;;;;10.43;5.83;;;;;;;;;;5028057;28;20199;-65
2022/05/17 05:04:18;;;;;;;8.27;5.60;;;;;;;;;;5028168;28;20228;-64
2022/05/17 05:06:45;;;;;;;9.87;5.43;;;;;;;;;;5016174;28;20912;-65
2022/05/17 05:09:13;;;;;;;9.43;5.03;;;;;;;;;;5029819;28;20218;-65
2022/05/17 05:11:40;;;;;;;6.17;4.70;;;;;;;;;;5028512;28;20238;-65
2022/05/17 05:14:09;;;;;;;8.07;4.50;;;;;;;;;;5035162;28;20221;-65
2022/05/17 05:16:39;;;;;;;4.87;4.00;;;;;;;;;;5035445;28;20611;-66
2022/05/17 05:19:06;;;;;;;8.43;4.60;;;;;;;;;;5033427;28;20236;-65
2022/05/17 05:21:34;;;;;;;4.80;4.20;;;;;;;;;;5029676;28;20236;-65
2022/05/17 05:24:04;;;;;;;4.40;4.00;;;;;;;;;;5046070;28;20229;-65
2022/05/17 05:26:35;;;;;;;4.53;3.83;;;;;;;;;;5033315;28;20686;-65
2022/05/17 05:29:02;;;;;;;5.20;3.70;;;;;;;;;;5027112;28;20748;-67
2022/05/17 05:31:29;;;;;;;5.75;3.28;;;;;;;;;;5024617;28;20210;-67
2022/05/17 05:33:57;;;;;;;6.43;3.25;;;;;;;;;;5022894;28;20607;-66
2022/05/17 05:36:25;;;;;;;3.33;2.90;;;;;;;;;;5022107;28;20203;-65
2022/05/17 05:38:52;;;;;;;2.97;2.58;;;;;;;;;;5023161;28;20525;-66
2022/05/17 05:41:19;;;;;;;4.93;2.85;;;;;;;;;;5041488;28;20610;-66
2022/05/17 05:43:47;;;;;;;3.25;2.60;;;;;;;;;;5022481;28;20676;-66
2022/05/17 05:46:14;;;;;;;4.13;2.38;;;;;;;;;;5028519;28;20198;-67
2022/05/17 05:48:42;;;;;;;5.13;2.22;;;;;;;;;;5012331;28;21119;-66
2022/05/17 05:51:11;;;;;;;3.40;2.50;;;;;;;;;;5007148;28;20198;-66
2022/05/17 05:53:39;;;;;;;2.55;2.03;;;;;;;;;;5009764;28;20256;-66
2022/05/17 05:56:07;;;;;;;2.35;2.13;;;;;;;;;;5009757;28;20677;-67
2022/05/17 05:58:36;;;;;;;3.00;2.00;;;;;;;;;;5005427;28;20227;-66
2022/05/17 06:01:05;;;;;;;3.90;2.22;;;;;;;;;;5029531;28;20713;-68
2022/05/17 06:03:32;;;;;;;4.75;3.88;;;;;;;;;;5029509;28;20604;-66
2022/05/17 06:06:00;;;;;;;5.75;3.25;;;;;;;;;;5019984;28;20240;-66
2022/05/17 06:08:31;;;;;;;2.70;2.20;;;;;;;;;;5023907;28;20226;-66
2022/05/17 06:11:01;;;;;;;6.05;2.97;;;;;;;;;;5039923;28;20214;-66
2022/05/17 06:13:28;;;;;;;3.30;3.00;;;;;;;;;;5031497;28;20210;-66
2022/05/17 06:15:56;;;;;;;3.75;2.85;;;;;;;;;;5031157;28;20217;-66
2022/05/17 06:18:23;;;;;;;5.30;3.67;;;;;;;;;;5031418;28;20433;-65
2022/05/17 06:20:52;;;;;;;3.97;3.58;;;;;;;;;;5024542;28;20197;-66
2022/05/17 06:23:20;;;;;;;4.90;3.60;;;;;;;;;;5023978;28;20229;-66
2022/05/17 06:25:48;;;;;;;7.57;4.40;;;;;;;;;;5028143;28;20202;-65
2022/05/17 06:28:16;;;;;;;8.05;4.80;;;;;;;;;;5042886;28;20227;-66
2022/05/17 06:30:43;;;;;;;6.53;4.88;;;;;;;;;;5032199;28;20202;-66
2022/05/17 06:33:12;;;;;;;6.63;4.95;;;;;;;;;;5033638;28;20263;-65
2022/05/17 06:35:41;;;;;;;6.35;4.85;;;;;;;;;;5028611;28;20215;-66
2022/05/17 06:38:08;;;;;;;6.53;5.25;;;;;;;;;;5032978;28;20230;-66
2022/05/17 06:40:36;;;;;;;6.47;5.85;;;;;;;;;;5033170;28;20287;-66
2022/05/17 06:43:04;;;;;;;7.13;5.72;;;;;;;;;;5029967;28;20219;-67
2022/05/17 06:45:33;;;;;;;6.57;5.75;;;;;;;;;;5020617;28;20213;-67
2022/05/17 06:48:01;;;;;;;6.47;5.50;;;;;;;;;;5026008;28;20203;-66
2022/05/17 06:50:29;;;;;;;6.43;5.47;;;;;;;;;;5031114;28;20213;-67
2022/05/17 06:52:57;;;;;;;7.15;6.20;;;;;;;;;;5031797;28;20198;-66
2022/05/17 06:55:24;;;;;;;6.90;5.85;;;;;;;;;;5028710;28;20682;-66
2022/05/17 06:57:52;;;;;;;8.00;5.40;;;;;;;;;;5029455;28;20195;-67
2022/05/17 07:00:20;;;;;;;9.02;5.82;;;;;;;;;;5024388;28;20222;-66
2022/05/17 07:02:48;;;;;;;5.85;5.20;;;;;;;;;;5021588;28;20206;-66
2022/05/17 07:05:16;;;;;;;6.05;5.45;;;;;;;;;;5022316;28;20238;-67
2022/05/17 07:07:44;;;;;;;7.38;5.72;;;;;;;;;;5030231;28;20226;-67
2022/05/17 07:13:08;;;;;;;7.30;5.53;;;;;;;;;;5044296;28;20210;-66
2022/05/17 07:15:43;;;;;;;7.88;5.72;;;;;;;;;;5028297;28;20218;-67
2022/05/17 07:18:12;;;;;;;5.95;5.20;;;;;;;;;;5026677;28;20225;-66
2022/05/17 07:20:43;;;;;;;7.22;5.40;;;;;;;;;;5039008;28;20215;-67
2022/05/17 07:23:11;;;;;;;7.47;5.55;;;;;;;;;;5029184;28;20226;-67
2022/05/17 07:25:44;;;;;;;6.63;5.28;;;;;;;;;;5032135;28;20198;-67
2022/05/17 07:28:13;;;;;;;6.40;5.00;;;;;;;;;;5024096;28;20230;-66
2022/05/17 07:30:42;;;;;;;7.93;4.95;;;;;;;;;;5027292;28;20248;-66
2022/05/17 07:33:10;;;;;;;6.28;5.22;;;;;;;;;;5026295;28;20215;-66
2022/05/17 07:35:37;;;;;;;6.22;5.10;;;;;;;;;;5028498;28;20263;-65
2022/05/17 07:38:06;;;;;;;5.75;5.05;;;;;;;;;;5028247;28;20644;-66
2022/05/17 07:40:34;;;;;;;7.70;5.18;;;;;;;;;;5024630;28;20254;-65
2022/05/17 07:43:01;;;;;;;5.90;5.35;;;;;;;;;;5023533;28;20264;-66
2022/05/17 07:45:29;;;;;;;7.30;5.03;;;;;;;;;;5027182;28;20281;-66
2022/05/17 07:47:57;;;;;;;5.28;4.70;;;;;;;;;;5024439;28;20202;-65
2022/05/17 07:50:24;;;;;;;7.18;5.18;;;;;;;;;;5024466;28;20199;-66
2022/05/17 07:52:52;;;;;;;6.97;4.97;;;;;;;;;;5027413;28;20284;-66
2022/05/17 07:55:19;;;;;;;5.72;4.22;;;;;;;;;;5026380;28;20218;-66
2022/05/17 07:57:47;;;;;;;6.45;4.03;;;;;;;;;;5024840;28;20814;-67
2022/05/17 08:00:14;;;;;;;5.53;3.95;;;;;;;;;;5022042;28;20222;-67
2022/05/17 08:02:43;;;;;;;4.60;4.20;;;;;;;;;;5023757;28;20221;-67
2022/05/17 08:05:10;;;;;;;4.30;3.85;;;;;;;;;;5032796;28;20230;-67
2022/05/17 08:07:39;;;;;;;4.10;3.53;;;;;;;;;;5045377;28;20207;-67
2022/05/17 08:10:07;;;;;;;8.02;4.70;;;;;;;;;;5031294;28;20227;-67
2022/05/17 08:12:34;;;;;;;16.75;9.48;;;;;;;;;;5006803;28;20216;-67
2022/05/17 08:15:01;;;;;;;5.85;4.82;;;;;;;;;;5031506;28;20210;-68
2022/05/17 08:17:29;;;;;;;5.60;4.10;;;;;;;;;;5031400;28;20214;-67
2022/05/17 08:19:59;;;;;;;4.30;3.55;;;;;;;;;;5032161;28;20233;-66
2022/05/17 08:22:26;;;;;;;5.20;3.55;;;;;;;;;;5031319;28;20213;-67
2022/05/17 08:27:40;;;;;;;3.55;3.25;;;;;;;;;;5042296;28;20247;-66
2022/05/17 08:30:10;;;;;;;5.10;3.55;;;;;;;;;;5023880;28;20226;-66
2022/05/17 08:35:30;;;;;;;4.82;4.32;;;;;;;;;;5049344;28;20210;-67
2022/05/17 08:37:58;;;;;;;3.63;3.13;;;;;;;;;;5031277;28;20229;-66
2022/05/17 08:40:27;;;;;;;4.72;3.28;;;;;;;;;;5030823;28;20210;-66
2022/05/17 08:43:01;;;;;;;3.67;3.20;;;;;;;;;;5020804;28;20799;-68
2022/05/17 08:45:32;;;;;;;3.50;3.20;;;;;;;;;;5029702;28;20229;-65
2022/05/17 08:48:00;;;;;;;3.85;3.45;;;;;;;;;;5027147;28;20221;-66
2022/05/17 08:50:32;;;;;;;3.47;3.17;;;;;;;;;;5033802;28;20237;-66
2022/05/17 08:52:59;;;;;;;4.05;3.20;;;;;;;;;;5034957;28;20212;-65
2022/05/17 08:55:29;;;;;;;3.35;2.80;;;;;;;;;;5030650;28;20553;-66
2022/05/17 08:58:00;;;;;;;4.28;3.15;;;;;;;;;;5030920;28;20233;-66
2022/05/17 09:00:36;;;;;;;3.20;2.88;;;;;;;;;;5031428;28;20793;-66
2022/05/17 09:03:18;;;;;;;3.28;2.63;;;;;;;;;;5030506;28;20589;-66
2022/05/17 09:05:58;;;;;;;5.72;2.85;;;;;;;;;;5035094;28;20578;-66
2022/05/17 09:08:29;;;;;;;4.80;2.95;;;;;;;;;;5030363;28;20703;-66
2022/05/17 09:10:58;;;;;;;4.40;2.53;;;;;;;;;;5032819;28;20191;-66
2022/05/17 09:13:29;;;;;;;3.25;2.75;;;;;;;;;;5025892;28;20209;-66
2022/05/17 09:16:16;;;;;;;4.40;3.08;;;;;;;;;;5027066;28;20206;-65
2022/05/17 09:18:45;;;;;;;2.85;2.63;;;;;;;;;;5023899;28;20584;-66
2022/05/17 09:21:33;;;;;;;3.70;2.80;;;;;;;;;;5018548;28;20194;-67
2022/05/17 09:24:04;;;;;;;5.38;2.80;;;;;;;;;;5047371;28;20226;-66
2022/05/17 09:26:32;;;;;;;2.80;2.50;;;;;;;;;;5045330;28;20203;-67
2022/05/17 09:29:00;;;;;;;3.88;2.60;;;;;;;;;;5034545;28;20229;-67
2022/05/17 09:31:29;;;;;;;3.35;2.50;;;;;;;;;;5034181;28;20202;-66
2022/05/17 09:33:58;;;;;;;4.63;2.75;;;;;;;;;;5034988;28;20221;-65
2022/05/17 09:36:29;;;;;;;2.80;2.60;;;;;;;;;;5033615;28;20202;-66
2022/05/17 09:38:58;;;;;;;4.00;2.80;;;;;;;;;;5033028;28;20636;-66
2022/05/17 09:41:29;;;;;;;4.10;2.78;;;;;;;;;;5035588;28;20696;-67
2022/05/17 09:44:01;;;;;;;2.90;2.55;;;;;;;;;;5052477;28;20234;-66
2022/05/17 09:46:30;;;;;;;3.25;2.58;;;;;;;;;;5034839;28;20256;-66
2022/05/17 09:54:43;;;;;;;4.32;2.28;;;;;;;;;;5050940;28;20206;-66
2022/05/17 09:57:12;;;;;;;4.55;2.47;;;;;;;;;;5050543;28;20206;-66
2022/05/17 09:59:40;;;;;;;2.65;2.13;;;;;;;;;;5037347;28;20219;-66
2022/05/17 10:02:29;;;;;;;2.38;2.15;;;;;;;;;;5034599;28;20256;-66
2022/05/17 10:05:01;;;;;;;3.60;2.65;;;;;;;;;;5032239;28;20234;-66
2022/05/17 10:07:30;;;;;;;3.00;2.33;;;;;;;;;;5031501;28;20285;-67
2022/05/17 10:09:58;;;;;;;2.60;2.40;;;;;;;;;;5033425;28;20926;-66
2022/05/17 10:12:33;;;;;;;2.70;2.50;;;;;;;;;;5025562;28;20194;-67
2022/05/17 10:15:09;;;;;;;3.55;2.53;;;;;;;;;;5020299;28;20213;-66
2022/05/17 10:17:37;;;;;;;4.95;2.63;;;;;;;;;;5023235;28;20296;-66
2022/05/17 10:20:12;;;;;;;3.15;2.45;;;;;;;;;;5025543;28;20264;-66
2022/05/17 10:22:55;;;;;;;3.50;2.35;;;;;;;;;;5022989;28;20644;-67
2022/05/17 10:25:26;;;;;;;3.38;2.28;;;;;;;;;;5020486;28;20231;-65
2022/05/17 10:27:55;;;;;;;4.15;2.40;;;;;;;;;;5017765;28;20207;-67
2022/05/17 10:31:01;;;;;;;3.22;2.30;;;;;;;;;;5024344;28;20597;-66
2022/05/17 10:33:58;;;;;;;2.42;2.13;;;;;;;;;;4964006;28;20203;-66
2022/05/17 10:36:27;;;;;;;3.40;2.40;;;;;;;;;;4976965;28;20297;-66
2022/05/17 10:39:17;;;;;;;2.33;2.10;;;;;;;;;;5012677;28;20643;-67
2022/05/17 10:41:45;;;;;;;3.22;2.70;;;;;;;;;;4968649;28;20207;-66
2022/05/17 10:44:19;;;;;;;4.10;2.75;;;;;;;;;;5006966;28;20222;-67
2022/05/17 10:46:56;;;;;;;2.20;2.00;;;;;;;;;;5005405;28;20264;-68
2022/05/17 10:49:30;;;;;;;4.10;2.40;;;;;;;;;;5010002;28;20583;-67
2022/05/17 10:52:21;;;;;;;3.65;2.35;;;;;;;;;;5002344;28;20245;-67
2022/05/17 10:54:49;;;;;;;4.03;2.30;;;;;;;;;;5018932;28;20295;-67
2022/05/17 10:57:19;;;;;;;2.83;2.10;;;;;;;;;;5020715;28;20256;-68
2022/05/17 10:59:59;;;;;;;4.15;2.40;;;;;;;;;;5023940;28;20222;-67
2022/05/17 11:02:33;;;;;;;4.05;2.45;;;;;;;;;;5022318;28;20265;-68
2022/05/17 11:05:18;;;;;;;2.90;2.47;;;;;;;;;;5026580;28;20591;-66
2022/05/17 11:07:54;;;;;;;2.65;2.40;;;;;;;;;;5026116;28;20206;-67
2022/05/17 11:10:24;;;;;;;2.80;2.40;;;;;;;;;;5024016;28;20213;-68
2022/05/17 11:13:09;;;;;;;4.15;2.40;;;;;;;;;;5031397;28;20255;-66
2022/05/17 11:15:40;;;;;;;5.00;2.53;;;;;;;;;;5026387;28;20220;-68
2022/05/17 11:18:12;;;;;;;3.08;2.55;;;;;;;;;;5031066;28;20778;-66
2022/05/17 11:20:52;;;;;;;5.43;2.38;;;;;;;;;;5042342;28;20206;-65
2022/05/17 11:23:38;;;;;;;2.58;1.83;;;;;;;;;;5021995;28;20201;-66
2022/05/17 11:26:11;;;;;;;2.47;2.20;;;;;;;;;;5033971;28;20313;-66
2022/05/17 11:28:41;;;;;;;2.55;2.33;;;;;;;;;;5024343;28;20226;-66
2022/05/17 11:31:13;;;;;;;3.45;2.08;;;;;;;;;;5023516;28;20214;-66
2022/05/17 11:33:47;;;;;;;3.70;2.50;;;;;;;;;;5025255;28;20290;-66
2022/05/17 11:36:34;;;;;;;3.08;2.72;;;;;;;;;;5022583;28;20210;-67
2022/05/17 11:39:02;;;;;;;3.38;2.25;;;;;;;;;;5037426;28;20223;-66
2022/05/17 11:41:35;;;;;;;3.10;2.55;;;;;;;;;;5025361;28;20257;-66
2022/05/17 11:44:06;;;;;;;2.50;2.05;;;;;;;;;;5022423;28;20232;-66
2022/05/17 11:46:34;;;;;;;3.75;2.63;;;;;;;;;;5018431;28;20203;-66
2022/05/17 11:49:09;;;;;;;4.13;2.20;;;;;;;;;;5023606;28;20280;-67
2022/05/17 11:51:38;;;;;;;4.18;1.88;;;;;;;;;;5037326;28;20194;-67
2022/05/17 11:54:10;;;;;;;1.85;1.50;;;;;;;;;;5022292;28;20294;-67
2022/05/17 11:56:39;;;;;;;2.63;1.98;;;;;;;;;;5018375;28;20197;-67
2022/05/17 11:59:13;;;;;;;1.80;1.70;;;;;;;;;;5020789;28;20691;-67
2022/05/17 12:01:40;;;;;;;2.03;1.92;;;;;;;;;;5013996;28;20524;-68
2022/05/17 12:04:22;;;;;;;2.10;1.90;;;;;;;;;;5031682;28;20586;-67
2022/05/17 12:06:49;;;;;;;2.72;2.10;;;;;;;;;;5032819;28;20206;-67
2022/05/17 12:09:29;;;;;;;2.13;1.92;;;;;;;;;;5023870;28;20351;-68
2022/05/17 12:12:03;;;;;;;3.50;2.13;;;;;;;;;;5020409;28;20264;-67
2022/05/17 12:14:34;;;;;;;3.97;3.35;;;;;;;;;;5021293;28;20637;-68
2022/05/17 12:17:03;;;;;;;6.55;2.30;;;;;;;;;;5017767;28;20206;-66
2022/05/17 12:19:45;;;;;;;5.97;2.30;;;;;;;;;;5028802;28;20229;-66
2022/05/17 12:22:19;;;;;;;4.97;2.30;;;;;;;;;;5022024;28;20659;-67
2022/05/17 12:24:47;;;;;;;3.00;1.77;;;;;;;;;;5020761;28;20230;-67
2022/05/17 12:27:18;;;;;;;3.20;2.08;;;;;;;;;;5018115;28;20206;-67
2022/05/17 12:32:47;;;;;;;2.33;2.00;;;;;;;;;;5036161;28;20202;-66
2022/05/17 12:35:22;;;;;;;3.75;2.22;;;;;;;;;;5018397;28;20222;-65
2022/05/17 12:37:49;;;;;;;2.50;2.00;;;;;;;;;;5024818;28;20248;-67
2022/05/17 12:43:07;;;;;;;3.22;1.90;;;;;;;;;;5039658;28;20589;-66
2022/05/17 12:45:41;;;;;;;3.60;2.03;;;;;;;;;;5027132;28;20222;-67
2022/05/17 12:48:32;;;;;;;2.63;1.77;;;;;;;;;;5027360;28;20241;-68
2022/05/17 12:51:02;;;;;;;3.35;2.13;;;;;;;;;;5014822;28;20210;-67
2022/05/17 12:53:53;;;;;;;3.13;2.00;;;;;;;;;;5025221;28;20202;-67
2022/05/17 12:56:37;;;;;;;2.78;1.70;;;;;;;;;;5023888;28;20207;-68
2022/05/17 12:59:06;;;;;;;3.72;2.10;;;;;;;;;;5030378;28;20735;-67
2022/05/17 13:01:38;;;;;;;2.13;1.70;;;;;;;;;;5030947;28;20202;-66
2022/05/17 13:04:10;;;;;;;3.80;1.90;;;;;;;;;;5039368;28;20332;-66
2022/05/17 13:06:39;;;;;;;2.20;1.60;;;;;;;;;;5027951;28;20326;-66
2022/05/17 13:09:21;;;;;;;2.17;1.88;;;;;;;;;;5026044;28;20584;-67
2022/05/17 13:11:49;;;;;;;1.73;1.63;;;;;;;;;;5029790;28;20199;-67
2022/05/17 13:14:28;;;;;;;1.73;1.60;;;;;;;;;;5023279;28;20442;-67
2022/05/17 13:17:01;;;;;;;2.47;1.60;;;;;;;;;;5032156;28;20803;-67
2022/05/17 13:19:33;;;;;;;4.15;1.80;;;;;;;;;;5024123;28;20261;-67
2022/05/17 13:22:00;;;;;;;2.90;1.90;;;;;;;;;;5031212;28;20285;-67
2022/05/17 13:24:38;;;;;;;2.17;1.60;;;;;;;;;;5034180;28;20289;-66
2022/05/17 13:27:07;;;;;;;1.70;1.60;;;;;;;;;;5029414;28;20206;-66
2022/05/17 13:29:36;;;;;;;2.67;1.63;;;;;;;;;;5026366;28;20245;-66
2022/05/17 13:32:05;;;;;;;2.00;1.90;;;;;;;;;;5023612;28;20203;-66
2022/05/17 13:34:35;;;;;;;3.08;1.90;;;;;;;;;;5023359;28;20341;-67
2022/05/17 13:37:16;;;;;;;3.30;2.25;;;;;;;;;;5039755;28;20271;-66
2022/05/17 13:39:45;;;;;;;6.85;4.72;;;;;;;;;;5023452;28;20214;-66
2022/05/17 13:42:24;;;;;;;6.95;4.30;;;;;;;;;;5026804;28;20356;-66
2022/05/17 13:44:59;;;;;;;2.15;1.92;;;;;;;;;;5020681;28;20641;-68
2022/05/17 13:47:40;;;;;;;3.17;2.00;;;;;;;;;;5024143;28;20249;-67
2022/05/17 13:50:10;;;;;;;2.38;2.17;;;;;;;;;;5025221;28;20313;-66
2022/05/17 13:52:41;;;;;;;2.63;1.88;;;;;;;;;;5027950;28;20198;-66
2022/05/17 13:55:08;;;;;;;3.58;1.83;;;;;;;;;;5029706;28;21659;-66
2022/05/17 13:57:37;;;;;;;2.60;1.83;;;;;;;;;;5030099;28;20209;-67
2022/05/17 14:00:07;;;;;;;4.10;2.13;;;;;;;;;;5032145;28;20232;-66
2022/05/17 14:02:50;;;;;;;4.57;2.15;;;;;;;;;;5030464;28;20198;-66
2022/05/17 14:05:20;;;;;;;3.28;2.20;;;;;;;;;;5044612;28;20644;-67
2022/05/17 14:07:56;;;;;;;4.50;1.80;;;;;;;;;;5030699;28;20198;-67
2022/05/17 14:13:21;;;;;;;1.63;1.52;;;;;;;;;;4959756;28;20206;-66
2022/05/17 14:15:49;;;;;;;1.52;1.42;;;;;;;;;;5025372;28;20598;-67
2022/05/17 14:18:24;;;;;;;1.85;1.70;;;;;;;;;;5009254;28;20231;-66
2022/05/17 14:20:52;;;;;;;1.75;1.60;;;;;;;;;;5017218;28;20209;-65
2022/05/17 14:23:20;;;;;;;2.25;2.05;;;;;;;;;;5025397;28;20540;-66
2022/05/17 14:25:48;;;;;;;3.10;2.15;;;;;;;;;;5027150;28;20942;-66
2022/05/17 14:28:15;;;;;;;2.35;1.63;;;;;;;;;;5024846;28;20226;-67
2022/05/17 14:30:43;;;;;;;4.00;1.90;;;;;;;;;;5049351;28;20215;-66
2022/05/17 14:33:12;;;;;;;2.40;1.75;;;;;;;;;;5028091;28;20218;-66
2022/05/17 14:35:40;;;;;;;1.58;1.48;;;;;;;;;;5045303;28;20587;-66
2022/05/17 14:38:08;;;;;;;1.85;1.35;;;;;;;;;;5025574;28;20206;-66
2022/05/17 14:40:35;;;;;;;1.73;1.52;;;;;;;;;;5026163;28;20218;-66
2022/05/17 14:43:04;;;;;;;2.75;1.90;;;;;;;;;;5023907;28;20222;-66
2022/05/17 14:45:33;;;;;;;2.88;1.85;;;;;;;;;;5025501;28;20664;-66
2022/05/17 14:48:01;;;;;;;4.55;1.80;;;;;;;;;;5031688;28;20820;-67
2022/05/17 14:50:29;;;;;;;2.47;1.63;;;;;;;;;;5023433;28;20960;-67
2022/05/17 14:52:56;;;;;;;2.13;1.67;;;;;;;;;;5018720;28;20207;-66
2022/05/17 14:55:26;;;;;;;2.88;1.90;;;;;;;;;;5031797;28;20211;-67
2022/05/17 14:57:53;;;;;;;3.50;1.73;;;;;;;;;;5014710;28;20214;-66
2022/05/17 15:00:23;;;;;;;3.40;1.70;;;;;;;;;;5036735;28;20260;-66
2022/05/17 15:02:55;;;;;;;3.90;1.85;;;;;;;;;;5015373;28;20293;-67
2022/05/17 15:05:30;;;;;;;3.38;1.70;;;;;;;;;;5028644;28;20218;-67
2022/05/17 15:07:58;;;;;;;2.67;1.83;;;;;;;;;;5022293;28;20221;-66
2022/05/17 15:10:28;;;;;;;4.28;1.80;;;;;;;;;;5026815;28;20244;-66
2022/05/17 15:12:56;;;;;;;1.80;1.70;;;;;;;;;;5020415;28;20211;-66
2022/05/17 15:15:24;;;;;;;4.82;1.90;;;;;;;;;;5017656;28;20221;-67
2022/05/17 15:17:55;;;;;;;3.95;1.83;;;;;;;;;;5021533;28;20576;-65
2022/05/17 15:20:23;;;;;;;1.67;1.58;;;;;;;;;;5020448;28;20219;-67
2022/05/17 15:22:51;;;;;;;2.08;1.83;;;;;;;;;;5013413;28;20202;-66
2022/05/17 15:25:20;;;;;;;6.47;2.03;;;;;;;;;;5016907;28;20316;-65
2022/05/17 15:27:50;;;;;;;3.97;1.90;;;;;;;;;;5023648;28;22887;-66
2022/05/17 15:30:17;;;;;;;2.35;1.70;;;;;;;;;;5020707;28;20212;-66